createdAt,value
2023-02-27T00:02:19.819Z,94.48
2023-02-27T00:05:01.045Z,95.16
2023-02-27T00:07:29.090Z,94.68
2023-02-27T00:09:57.462Z,93.17
2023-02-27T00:12:25.328Z,94.16
2023-02-27T00:14:53.065Z,94.43
2023-02-27T00:17:20.871Z,94.99
2023-02-27T00:19:52.875Z,93.31
2023-02-27T00:22:20.462Z,91.97
2023-02-27T00:24:48.355Z,92.80
2023-02-27T00:27:15.974Z,92.43
2023-02-27T00:29:45.187Z,92.83
2023-02-27T00:32:16.981Z,93.17
2023-02-27T00:34:45.733Z,93.16
2023-02-27T00:37:13.431Z,94.10
2023-02-27T00:39:41.179Z,93.25
2023-02-27T00:42:08.874Z,93.76
2023-02-27T00:44:38.746Z,93.12
2023-02-27T00:47:07.893Z,92.02
2023-02-27T00:49:35.977Z,91.99
2023-02-27T00:52:04.633Z,92.79
2023-02-27T00:54:34.697Z,92.63
2023-02-27T00:57:02.938Z,92.79
2023-02-27T00:59:30.679Z,92.41
2023-02-27T01:01:58.532Z,91.50
2023-02-27T01:04:32.573Z,91.29
2023-02-27T01:07:00.333Z,90.64
2023-02-27T01:09:28.113Z,92.40
2023-02-27T01:11:55.701Z,92.75
2023-02-27T01:14:23.587Z,92.46
2023-02-27T01:16:51.511Z,91.44
2023-02-27T01:19:19.754Z,91.16
2023-02-27T01:21:47.445Z,91.23
2023-02-27T01:24:20.380Z,90.88
2023-02-27T01:26:49.238Z,90.52
2023-02-27T01:29:17.094Z,89.68
2023-02-27T01:31:44.796Z,90.43
2023-02-27T01:34:12.470Z,90.03
2023-02-27T01:36:41.823Z,90.77
2023-02-27T01:39:09.727Z,89.87
2023-02-27T01:41:37.377Z,90.48
2023-02-27T01:44:10.986Z,90.85
2023-02-27T01:46:39.592Z,90.86
2023-02-27T01:49:17.646Z,91.07
2023-02-27T01:51:47.870Z,91.53
2023-02-27T01:54:19.023Z,90.36
2023-02-27T01:56:48.308Z,90.67
2023-02-27T01:59:16.121Z,91.16
2023-02-27T02:01:43.911Z,91.95
2023-02-27T02:04:20.321Z,90.67
2023-02-27T02:06:50.787Z,90.94
2023-02-27T02:09:19.863Z,92.48
2023-02-27T02:11:48.100Z,91.46
2023-02-27T02:14:19.098Z,90.70
2023-02-27T02:16:54.885Z,91.10
2023-02-27T02:19:41.109Z,90.90
2023-02-27T02:22:27.200Z,90.75
2023-02-27T02:25:16.621Z,90.80
2023-02-27T02:27:55.259Z,93.24
2023-02-27T02:30:34.929Z,93.05
2023-02-27T02:33:26.743Z,91.31
2023-02-27T02:36:19.088Z,90.25
2023-02-27T02:38:51.287Z,89.29
2023-02-27T02:41:49.813Z,90.84
2023-02-27T02:44:24.582Z,91.34
2023-02-27T02:47:04.387Z,92.79
2023-02-27T02:49:43.834Z,92.37
2023-02-27T02:52:17.569Z,92.08
2023-02-27T02:55:00.368Z,90.46
2023-02-27T02:57:37.477Z,89.48
2023-02-27T03:00:19.566Z,91.14
2023-02-27T03:02:49.964Z,90.49
2023-02-27T03:05:24.710Z,92.75
2023-02-27T03:08:06.280Z,93.08
2023-02-27T03:10:40.962Z,92.32
2023-02-27T03:13:14.474Z,91.75
2023-02-27T03:15:48.077Z,93.51
2023-02-27T03:18:20.912Z,94.30
2023-02-27T03:21:14.906Z,95.27
2023-02-27T03:23:47.340Z,96.95
2023-02-27T03:26:17.538Z,96.96
2023-02-27T03:28:59.457Z,96.23
2023-02-27T03:31:51.981Z,97.35
2023-02-27T03:34:40.443Z,97.03
2023-02-27T03:37:26.747Z,97.88
2023-02-27T03:39:57.331Z,98.66
2023-02-27T03:42:34.136Z,97.53
2023-02-27T03:45:35.889Z,96.69
2023-02-27T03:48:03.709Z,96.77
2023-02-27T03:50:34.163Z,97.19
2023-02-27T03:53:02.185Z,95.82
2023-02-27T03:55:35.190Z,96.37
2023-02-27T03:58:03.053Z,95.13
2023-02-27T04:00:30.831Z,94.55
2023-02-27T04:03:02.755Z,93.49
2023-02-27T04:05:31.922Z,92.91
2023-02-27T04:08:07.957Z,93.23
2023-02-27T04:11:02.864Z,92.88
2023-02-27T04:14:08.244Z,92.59
2023-02-27T04:17:04.511Z,92.80
2023-02-27T04:19:44.216Z,91.65
2023-02-27T04:22:21.382Z,93.36
2023-02-27T04:24:54.511Z,94.17
2023-02-27T04:27:25.476Z,93.00
2023-02-27T04:30:00.101Z,93.66
2023-02-27T04:32:38.929Z,93.85
2023-02-27T04:35:37.452Z,94.68
2023-02-27T04:38:26.163Z,94.09
2023-02-27T04:41:00.147Z,94.64
2023-02-27T04:43:28.020Z,94.29
2023-02-27T04:45:56.306Z,93.53
2023-02-27T04:48:27.518Z,95.87
2023-02-27T04:51:06.420Z,96.09
2023-02-27T04:53:39.058Z,94.72
2023-02-27T04:56:10.406Z,94.27
2023-02-27T04:58:44.627Z,94.68
2023-02-27T05:01:38.138Z,94.84
2023-02-27T05:04:05.975Z,94.77
2023-02-27T05:06:36.466Z,94.94
2023-02-27T05:09:31.402Z,95.96
2023-02-27T05:12:18.231Z,95.45
2023-02-27T05:14:50.137Z,96.83
2023-02-27T05:17:42.888Z,96.25
2023-02-27T05:20:11.481Z,97.33
2023-02-27T05:23:01.368Z,96.81
2023-02-27T05:25:45.798Z,96.39
2023-02-27T05:28:19.319Z,97.10
2023-02-27T05:30:57.760Z,96.50
2023-02-27T05:33:33.185Z,95.98
2023-02-27T05:36:21.853Z,95.09
2023-02-27T05:38:52.067Z,95.47
2023-02-27T05:41:22.855Z,95.56
2023-02-27T05:44:02.210Z,95.42
2023-02-27T05:46:42.030Z,95.57
2023-02-27T05:49:20.537Z,95.35
2023-02-27T05:51:49.148Z,94.61
2023-02-27T05:54:24.926Z,95.32
2023-02-27T05:57:57.709Z,93.82
2023-02-27T06:00:31.776Z,93.71
2023-02-27T06:02:59.626Z,94.41
2023-02-27T06:05:27.549Z,93.48
2023-02-27T06:07:55.476Z,93.17
2023-02-27T06:10:24.424Z,93.12
2023-02-27T06:12:52.648Z,93.43
2023-02-27T06:15:20.601Z,93.57
2023-02-27T06:17:49.152Z,93.57
2023-02-27T06:20:17.032Z,93.75
2023-02-27T06:22:44.776Z,94.32
2023-02-27T06:25:12.499Z,94.94
2023-02-27T06:27:40.524Z,95.40
2023-02-27T06:30:08.726Z,94.97
2023-02-27T06:32:36.916Z,95.74
2023-02-27T06:35:07.130Z,95.12
2023-02-27T06:37:37.557Z,94.32
2023-02-27T06:40:06.524Z,95.05
2023-02-27T06:42:34.413Z,94.96
2023-02-27T06:45:02.075Z,94.22
2023-02-27T06:47:29.783Z,94.01
2023-02-27T06:49:58.041Z,94.19
2023-02-27T06:52:25.875Z,93.56
2023-02-27T06:54:53.652Z,94.25
2023-02-27T06:57:21.364Z,94.73
2023-02-27T06:59:49.128Z,94.09
2023-02-27T07:02:21.133Z,94.05
2023-02-27T07:04:50.825Z,95.64
2023-02-27T07:07:33.977Z,95.61
2023-02-27T07:10:06.187Z,95.75
2023-02-27T07:12:34.250Z,96.11
2023-02-27T07:15:02.455Z,95.04
2023-02-27T07:17:31.901Z,94.68
2023-02-27T07:20:00.863Z,94.24
2023-02-27T07:22:28.936Z,94.95
2023-02-27T07:24:56.723Z,94.72
2023-02-27T07:27:24.763Z,95.49
2023-02-27T07:29:53.066Z,96.27
2023-02-27T07:32:20.847Z,96.36
2023-02-27T07:34:48.739Z,97.20
2023-02-27T07:37:20.552Z,96.37
2023-02-27T07:39:48.616Z,94.50
2023-02-27T07:42:16.809Z,96.33
2023-02-27T07:44:44.678Z,95.90
2023-02-27T07:47:12.809Z,95.30
2023-02-27T07:49:40.551Z,95.56
2023-02-27T07:52:08.570Z,96.81
2023-02-27T07:54:37.749Z,96.86
2023-02-27T07:57:07.569Z,96.88
2023-02-27T07:59:35.183Z,95.18
2023-02-27T08:02:03.109Z,94.74
2023-02-27T08:04:32.031Z,94.32
2023-02-27T08:07:00.792Z,95.26
2023-02-27T08:09:28.525Z,95.01
2023-02-27T08:11:58.697Z,95.25
2023-02-27T08:14:26.419Z,96.08
2023-02-27T08:16:54.671Z,96.81
2023-02-27T08:19:22.255Z,96.00
2023-02-27T08:21:50.275Z,96.43
2023-02-27T08:24:18.246Z,94.91
2023-02-27T08:26:48.035Z,94.72
2023-02-27T08:29:17.077Z,93.98
2023-02-27T08:31:45.119Z,94.11
2023-02-27T08:34:13.233Z,93.55
2023-02-27T08:36:42.750Z,93.83
2023-02-27T08:39:10.521Z,93.08
2023-02-27T08:41:39.029Z,93.70
2023-02-27T08:44:06.727Z,94.35
2023-02-27T08:46:35.425Z,93.58
2023-02-27T08:49:03.755Z,94.88
2023-02-27T08:51:31.784Z,94.20
2023-02-27T08:54:06.627Z,95.08
2023-02-27T08:56:36.705Z,93.78
2023-02-27T08:59:04.565Z,93.50
2023-02-27T09:01:34.815Z,94.02
2023-02-27T09:04:03.825Z,95.27
2023-02-27T09:06:36.354Z,94.00
2023-02-27T09:09:04.722Z,95.27
2023-02-27T09:11:33.007Z,95.25
2023-02-27T09:14:00.981Z,94.95
2023-02-27T09:16:30.235Z,95.44
2023-02-27T09:18:58.873Z,95.00
2023-02-27T09:21:26.885Z,94.41
2023-02-27T09:23:55.159Z,94.39
2023-02-27T09:26:35.691Z,95.51
2023-02-27T09:29:08.631Z,95.17
2023-02-27T09:31:38.014Z,95.27
2023-02-27T09:34:09.466Z,95.46
2023-02-27T09:36:39.057Z,92.70
2023-02-27T09:39:09.491Z,91.47
2023-02-27T09:42:01.303Z,92.72
2023-02-27T09:44:47.428Z,92.54
2023-02-27T09:47:22.599Z,91.82
2023-02-27T09:49:57.376Z,94.12
2023-02-27T09:52:25.294Z,94.21
2023-02-27T09:54:55.399Z,93.20
2023-02-27T09:57:46.734Z,93.22
2023-02-27T10:00:28.104Z,94.30
2023-02-27T10:03:16.219Z,92.92
2023-02-27T10:05:50.848Z,93.64
2023-02-27T10:08:29.055Z,93.78
2023-02-27T10:11:01.271Z,91.63
2023-02-27T10:13:51.180Z,91.62
2023-02-27T10:30:32.358Z,91.82
2023-02-27T10:33:10.462Z,91.86
2023-02-27T10:35:39.443Z,93.41
2023-02-27T10:38:18.077Z,93.61
2023-02-27T10:40:45.964Z,93.89
2023-02-27T10:43:15.987Z,94.50
2023-02-27T10:45:44.149Z,94.53
2023-02-27T10:48:15.011Z,95.96
2023-02-27T10:50:52.848Z,96.27
2023-02-27T10:53:25.257Z,96.81
2023-02-27T10:56:03.823Z,95.84
2023-02-27T10:58:35.039Z,95.06
2023-02-27T11:01:04.876Z,94.97
2023-02-27T11:03:41.092Z,95.49
2023-02-27T11:06:13.150Z,94.88
2023-02-27T11:08:41.040Z,95.38
2023-02-27T11:11:11.096Z,95.17
2023-02-27T11:13:43.414Z,93.84
2023-02-27T11:16:16.383Z,94.60
2023-02-27T11:18:50.654Z,94.53
2023-02-27T11:21:27.651Z,94.01
2023-02-27T11:24:02.480Z,94.36
2023-02-27T11:26:34.816Z,92.91
2023-02-27T11:29:20.453Z,92.92
2023-02-27T11:31:55.666Z,92.40
2023-02-27T11:34:29.351Z,92.66
2023-02-27T11:37:35.689Z,91.72
2023-02-27T11:40:09.867Z,92.19
2023-02-27T11:42:42.345Z,91.67
2023-02-27T11:46:04.168Z,92.19
2023-02-27T11:48:19.645Z,92.12
2023-02-27T11:50:57.996Z,93.06
2023-02-27T11:53:31.124Z,93.40
2023-02-27T11:56:00.056Z,93.65
2023-02-27T11:58:33.260Z,93.96
2023-02-27T12:01:03.869Z,93.40
2023-02-27T12:03:50.329Z,92.67
2023-02-27T12:06:47.570Z,92.47
2023-02-27T12:09:46.269Z,93.04
2023-02-27T12:12:56.735Z,92.41
2023-02-27T12:15:34.860Z,93.36
2023-02-27T12:18:23.393Z,94.88
2023-02-27T12:21:04.664Z,94.45
2023-02-27T12:24:02.976Z,93.60
2023-02-27T12:26:42.329Z,95.08
2023-02-27T12:29:42.539Z,94.41
2023-02-27T12:32:14.768Z,94.54
2023-02-27T12:34:54.367Z,96.37
2023-02-27T12:37:27.736Z,95.64
2023-02-27T12:39:57.082Z,95.58
2023-02-27T12:42:44.158Z,95.21
2023-02-27T12:45:28.060Z,93.84
2023-02-27T12:48:21.087Z,94.95
2023-02-27T12:51:26.732Z,95.15
2023-02-27T12:54:16.474Z,94.61
2023-02-27T12:56:44.367Z,95.13
2023-02-27T12:59:17.065Z,94.74
2023-02-27T13:01:49.105Z,95.00
2023-02-27T13:04:26.206Z,94.11
2023-02-27T13:07:25.474Z,94.93
2023-02-27T13:10:01.371Z,95.22
2023-02-27T13:12:43.670Z,95.81
2023-02-27T13:15:31.694Z,96.45
2023-02-27T13:18:25.674Z,96.29
2023-02-27T13:20:58.702Z,96.38
2023-02-27T13:23:32.330Z,97.72
2023-02-27T13:26:00.610Z,96.06
2023-02-27T13:28:29.481Z,96.31
2023-02-27T13:31:15.696Z,94.94
2023-02-27T13:34:03.008Z,95.76
2023-02-27T13:36:36.103Z,95.50
2023-02-27T13:39:08.019Z,96.03
2023-02-27T13:41:41.921Z,96.48
2023-02-27T13:44:22.251Z,97.08
2023-02-27T13:46:50.662Z,96.55
2023-02-27T13:49:29.715Z,97.20
2023-02-27T13:52:00.000Z,96.94
2023-02-27T13:54:30.510Z,96.58
2023-02-27T13:57:05.151Z,96.44
2023-02-27T13:59:37.956Z,96.40
2023-02-27T14:02:12.532Z,95.77
2023-02-27T14:05:06.983Z,95.12
2023-02-27T14:07:53.554Z,95.00
2023-02-27T14:10:23.636Z,94.80
2023-02-27T14:12:52.039Z,96.34
2023-02-27T14:15:24.302Z,95.66
2023-02-27T14:18:12.406Z,95.96
2023-02-27T14:20:43.931Z,95.28
2023-02-27T14:23:17.377Z,95.25
2023-02-27T14:25:51.111Z,95.71
2023-02-27T14:28:54.188Z,96.65
2023-02-27T14:31:33.464Z,96.01
2023-02-27T14:34:10.575Z,96.59
2023-02-27T14:36:46.831Z,96.85
2023-02-27T14:39:33.552Z,97.71
2023-02-27T14:42:40.373Z,97.04
2023-02-27T14:45:24.330Z,97.06
2023-02-27T14:47:53.437Z,96.45
2023-02-27T14:50:25.997Z,96.86
2023-02-27T14:52:54.470Z,98.28
2023-02-27T14:55:30.089Z,97.51
2023-02-27T14:58:00.437Z,97.67
2023-02-27T15:01:02.591Z,97.12
2023-02-27T15:03:50.461Z,97.09
2023-02-27T15:06:18.524Z,97.36
2023-02-27T15:08:48.773Z,96.93
2023-02-27T15:11:22.192Z,96.96
2023-02-27T15:14:04.709Z,97.81
2023-02-27T15:16:41.539Z,98.24
2023-02-27T15:23:43.161Z,99.09
2023-02-27T15:26:13.309Z,97.98
2023-02-27T15:28:43.511Z,98.01
2023-02-27T15:31:18.457Z,97.99
2023-02-27T15:33:46.338Z,97.73
2023-02-27T15:36:20.268Z,97.54
2023-02-27T15:39:08.758Z,97.43
2023-02-27T15:41:40.021Z,98.21
2023-02-27T15:44:10.848Z,98.83
2023-02-27T15:46:38.919Z,97.79
2023-02-27T15:49:07.033Z,97.72
2023-02-27T15:51:36.303Z,98.66
2023-02-27T15:54:04.380Z,98.35
2023-02-27T15:56:33.693Z,99.31
2023-02-27T15:59:03.204Z,99.22
2023-02-27T16:01:32.913Z,99.06
2023-02-27T16:04:05.801Z,97.77
2023-02-27T16:06:39.009Z,96.92
2023-02-27T16:09:20.805Z,98.86
2023-02-27T16:11:50.025Z,98.29
2023-02-27T16:14:38.614Z,97.79
2023-02-27T16:17:32.362Z,96.24
2023-02-27T16:20:02.326Z,96.99
2023-02-27T16:22:30.712Z,96.86
2023-02-27T16:25:11.528Z,97.24
2023-02-27T16:27:39.932Z,96.56
2023-02-27T16:30:10.895Z,96.54
2023-02-27T16:32:42.363Z,96.35
2023-02-27T16:35:20.999Z,98.44
2023-02-27T16:37:49.718Z,98.52
2023-02-27T16:40:23.368Z,97.06
2023-02-27T16:42:51.957Z,97.45
2023-02-27T16:45:22.015Z,96.90
2023-02-27T16:47:54.291Z,96.88
2023-02-27T16:50:23.156Z,96.68
2023-02-27T16:52:50.980Z,96.92
2023-02-27T16:55:21.877Z,96.59
2023-02-27T16:57:53.595Z,95.37
2023-02-27T17:00:25.683Z,96.55
2023-02-27T17:02:54.422Z,96.58
2023-02-27T17:05:24.397Z,95.98
2023-02-27T17:07:53.795Z,95.21
2023-02-27T17:10:22.500Z,95.70
2023-02-27T17:12:51.959Z,96.17
2023-02-27T17:15:20.127Z,96.55
2023-02-27T17:17:49.836Z,95.80
2023-02-27T17:20:18.219Z,96.10
2023-02-27T17:22:46.478Z,95.59
2023-02-27T17:25:14.425Z,94.48
2023-02-27T17:27:43.750Z,94.46
2023-02-27T17:30:12.351Z,93.96
2023-02-27T17:32:40.594Z,94.22
2023-02-27T17:35:09.089Z,94.59
2023-02-27T17:37:37.118Z,94.61
2023-02-27T17:40:06.321Z,94.63
2023-02-27T17:42:36.438Z,94.54
2023-02-27T17:45:06.778Z,93.90
2023-02-27T17:47:35.588Z,93.90
2023-02-27T17:50:04.477Z,93.60
2023-02-27T17:52:35.989Z,94.39
2023-02-27T17:55:04.394Z,94.38
2023-02-27T17:57:35.733Z,93.82
2023-02-27T18:00:04.901Z,93.78
2023-02-27T18:02:36.872Z,94.55
2023-02-27T18:05:06.154Z,93.80
2023-02-27T18:07:34.935Z,94.46
2023-02-27T18:10:05.674Z,94.30
2023-02-27T18:12:33.669Z,93.66
2023-02-27T18:15:07.381Z,95.01
2023-02-27T18:17:36.017Z,94.63
2023-02-27T18:20:05.428Z,94.49
2023-02-27T18:22:34.560Z,94.41
2023-02-27T18:25:02.413Z,94.13
2023-02-27T18:27:30.381Z,94.61
2023-02-27T18:29:58.543Z,94.58
2023-02-27T18:32:26.465Z,94.29
2023-02-27T18:34:54.318Z,94.03
2023-02-27T18:37:21.981Z,93.97
2023-02-27T18:39:50.418Z,94.74
2023-02-27T18:42:18.270Z,94.04
2023-02-27T18:44:47.806Z,93.62
2023-02-27T18:47:15.550Z,94.17
2023-02-27T18:49:43.432Z,94.45
2023-02-27T18:52:11.474Z,94.42
2023-02-27T18:54:43.342Z,95.75
2023-02-27T18:57:11.525Z,94.82
2023-02-27T18:59:41.447Z,94.90
2023-02-27T19:02:16.514Z,94.81
2023-02-27T19:04:44.110Z,95.42
2023-02-27T19:07:12.203Z,95.25
2023-02-27T19:09:40.267Z,95.07
2023-02-27T19:12:10.880Z,95.59
2023-02-27T19:14:39.032Z,95.17
2023-02-27T19:17:09.515Z,95.15
2023-02-27T19:19:37.662Z,93.89
2023-02-27T19:22:05.377Z,95.27
2023-02-27T19:24:36.176Z,94.99
2023-02-27T19:27:04.188Z,96.37
2023-02-27T19:29:36.852Z,96.45
2023-02-27T19:32:08.418Z,96.32
2023-02-27T19:34:36.303Z,95.88
2023-02-27T19:37:04.312Z,94.55
2023-02-27T19:39:32.107Z,94.36
2023-02-27T19:42:00.399Z,94.99
2023-02-27T19:44:28.235Z,96.60
2023-02-27T19:46:56.970Z,96.09
2023-02-27T19:49:25.285Z,98.06
2023-02-27T19:51:53.233Z,95.87
2023-02-27T19:54:21.114Z,96.62
2023-02-27T19:56:49.133Z,95.90
2023-02-27T19:59:18.391Z,96.23
2023-02-27T20:01:46.257Z,95.53
2023-02-27T20:04:14.388Z,94.16
2023-02-27T20:06:44.570Z,95.76
2023-02-27T20:09:14.821Z,95.64
2023-02-27T20:11:44.942Z,96.44
2023-02-27T20:14:14.066Z,96.88
2023-02-27T20:16:42.074Z,97.35
2023-02-27T20:19:12.072Z,96.60
2023-02-27T20:21:41.620Z,96.61
2023-02-27T20:24:10.587Z,96.73
2023-02-27T20:26:49.684Z,97.47
2023-02-27T20:29:19.719Z,97.42
2023-02-27T20:31:48.796Z,97.55
2023-02-27T20:34:22.062Z,97.69
2023-02-27T20:36:52.542Z,97.06
2023-02-27T20:39:22.695Z,98.17
2023-02-27T20:41:50.561Z,98.15
2023-02-27T20:44:18.451Z,96.01
2023-02-27T20:46:49.299Z,95.37
2023-02-27T20:49:21.024Z,97.31
2023-02-27T20:51:48.708Z,98.69
2023-02-27T20:54:20.690Z,97.39
2023-02-27T20:56:51.979Z,98.44
2023-02-27T20:59:20.821Z,97.75
2023-02-27T21:01:52.058Z,97.55
2023-02-27T21:04:42.307Z,97.10
2023-02-27T21:07:11.848Z,96.54
2023-02-27T21:09:42.452Z,96.75
2023-02-27T21:12:10.728Z,96.20
2023-02-27T21:14:38.963Z,96.83
2023-02-27T21:17:07.108Z,96.20
2023-02-27T21:19:35.026Z,96.71
2023-02-27T21:22:02.918Z,97.46
2023-02-27T21:24:32.326Z,97.29
2023-02-27T21:27:00.499Z,96.23
2023-02-27T21:29:28.366Z,95.72
2023-02-27T21:31:57.252Z,97.00
2023-02-27T21:34:26.064Z,96.44
2023-02-27T21:36:54.267Z,96.78
2023-02-27T21:39:41.852Z,97.51
2023-02-27T21:42:09.749Z,98.99
2023-02-27T21:44:37.777Z,98.67
2023-02-27T21:47:10.353Z,97.35
2023-02-27T21:49:39.446Z,97.20
2023-02-27T21:52:07.181Z,97.56
2023-02-27T21:54:34.907Z,98.15
2023-02-27T21:57:03.438Z,98.95
2023-02-27T21:59:31.283Z,97.89
2023-02-27T22:01:59.449Z,98.23
2023-02-27T22:04:27.200Z,99.06
2023-02-27T22:06:54.929Z,99.55
2023-02-27T22:09:24.353Z,97.87
2023-02-27T22:11:52.468Z,98.45
2023-02-27T22:14:20.646Z,98.38
2023-02-27T22:16:50.380Z,98.71
2023-02-27T22:19:22.197Z,97.98
2023-02-27T22:21:50.237Z,97.78
2023-02-27T22:24:18.539Z,98.03
2023-02-27T22:26:47.989Z,97.53
2023-02-27T22:29:17.224Z,96.82
2023-02-27T22:31:45.476Z,97.59
2023-02-27T22:34:18.260Z,97.54
2023-02-27T22:36:47.211Z,98.15
2023-02-27T22:39:15.405Z,97.94
2023-02-27T22:41:43.737Z,97.78
2023-02-27T22:44:12.846Z,98.08
2023-02-27T22:46:43.212Z,97.83
2023-02-27T22:49:19.029Z,97.74
2023-02-27T22:51:50.725Z,96.84
2023-02-27T22:54:20.438Z,97.48
2023-02-27T22:56:50.368Z,96.19
2023-02-27T22:59:30.970Z,98.34
2023-02-27T23:01:59.531Z,98.41
2023-02-27T23:04:27.521Z,96.74
2023-02-27T23:06:56.596Z,96.54
2023-02-27T23:09:26.370Z,97.56
2023-02-27T23:11:55.400Z,96.83
2023-02-27T23:14:23.998Z,96.55
2023-02-27T23:16:52.167Z,96.14
2023-02-27T23:19:20.625Z,97.19
2023-02-27T23:21:55.147Z,97.11
2023-02-27T23:24:23.123Z,96.75
2023-02-27T23:26:51.686Z,96.46
2023-02-27T23:29:20.018Z,95.90
2023-02-27T23:31:48.276Z,96.40
2023-02-27T23:34:18.582Z,97.55
2023-02-27T23:36:46.732Z,96.34
2023-02-27T23:39:14.497Z,96.71
2023-02-27T23:41:42.661Z,95.73
2023-02-27T23:44:10.421Z,95.96
2023-02-27T23:46:38.340Z,97.35
2023-02-27T23:49:06.173Z,96.75
2023-02-27T23:51:34.936Z,96.91
2023-02-27T23:54:03.720Z,96.50
2023-02-27T23:56:32.426Z,95.81
2023-02-27T23:59:01.782Z,95.37
